sensor_id;sensor_type;location;lat;lon;timestamp;P1;durP1;ratioP1;P2;durP2;ratioP2
40459;SDS011;26164;51.138;16.952;2023-12-20T00:01:35;21.95;;;11.45;;
40459;SDS011;26164;51.138;16.952;2023-12-20T00:04:03;18.92;;;10.70;;
40459;SDS011;26164;51.138;16.952;2023-12-20T00:06:29;18.25;;;10.65;;
40459;SDS011;26164;51.138;16.952;2023-12-20T00:08:56;15.95;;;9.50;;
40459;SDS011;26164;51.138;16.952;2023-12-20T00:11:25;15.98;;;9.55;;
40459;SDS011;26164;51.138;16.952;2023-12-20T00:14:06;16.98;;;10.10;;
40459;SDS011;26164;51.138;16.952;2023-12-20T00:16:42;16.17;;;9.00;;
40459;SDS011;26164;51.138;16.952;2023-12-20T00:19:09;18.02;;;9.07;;
40459;SDS011;26164;51.138;16.952;2023-12-20T00:21:35;15.88;;;8.90;;
40459;SDS011;26164;51.138;16.952;2023-12-20T00:24:02;15.52;;;8.57;;
40459;SDS011;26164;51.138;16.952;2023-12-20T00:26:46;16.23;;;8.90;;
40459;SDS011;26164;51.138;16.952;2023-12-20T00:29:13;15.73;;;8.60;;
40459;SDS011;26164;51.138;16.952;2023-12-20T00:31:39;18.88;;;8.23;;
40459;SDS011;26164;51.138;16.952;2023-12-20T00:34:06;18.40;;;8.90;;
40459;SDS011;26164;51.138;16.952;2023-12-20T00:36:32;15.15;;;8.40;;
40459;SDS011;26164;51.138;16.952;2023-12-20T00:38:59;13.43;;;8.20;;
40459;SDS011;26164;51.138;16.952;2023-12-20T00:41:28;13.20;;;8.18;;
40459;SDS011;26164;51.138;16.952;2023-12-20T00:43:56;15.18;;;8.23;;
40459;SDS011;26164;51.138;16.952;2023-12-20T00:46:22;13.43;;;7.88;;
40459;SDS011;26164;51.138;16.952;2023-12-20T00:49:03;13.27;;;8.73;;
40459;SDS011;26164;51.138;16.952;2023-12-20T00:51:43;22.40;;;9.05;;
40459;SDS011;26164;51.138;16.952;2023-12-20T00:54:24;16.95;;;9.82;;
40459;SDS011;26164;51.138;16.952;2023-12-20T00:56:57;17.50;;;9.82;;
40459;SDS011;26164;51.138;16.952;2023-12-20T00:59:23;19.23;;;10.18;;
40459;SDS011;26164;51.138;16.952;2023-12-20T01:01:54;15.93;;;8.57;;
40459;SDS011;26164;51.138;16.952;2023-12-20T01:04:20;15.18;;;9.15;;
40459;SDS011;26164;51.138;16.952;2023-12-20T01:06:53;15.27;;;6.78;;
40459;SDS011;26164;51.138;16.952;2023-12-20T01:09:19;12.98;;;7.28;;
40459;SDS011;26164;51.138;16.952;2023-12-20T01:11:50;12.27;;;7.15;;
40459;SDS011;26164;51.138;16.952;2023-12-20T01:14:19;15.23;;;7.55;;
40459;SDS011;26164;51.138;16.952;2023-12-20T01:17:09;15.80;;;8.25;;
40459;SDS011;26164;51.138;16.952;2023-12-20T01:19:38;12.95;;;7.82;;
40459;SDS011;26164;51.138;16.952;2023-12-20T01:22:06;15.13;;;9.27;;
40459;SDS011;26164;51.138;16.952;2023-12-20T01:24:34;13.93;;;8.25;;
40459;SDS011;26164;51.138;16.952;2023-12-20T01:27:00;16.13;;;9.07;;
40459;SDS011;26164;51.138;16.952;2023-12-20T01:29:33;14.93;;;9.10;;
40459;SDS011;26164;51.138;16.952;2023-12-20T01:32:00;14.20;;;8.95;;
40459;SDS011;26164;51.138;16.952;2023-12-20T01:34:43;16.35;;;8.15;;
40459;SDS011;26164;51.138;16.952;2023-12-20T01:37:14;14.15;;;8.07;;
40459;SDS011;26164;51.138;16.952;2023-12-20T01:39:40;13.07;;;8.40;;
40459;SDS011;26164;51.138;16.952;2023-12-20T01:42:21;14.48;;;9.77;;
40459;SDS011;26164;51.138;16.952;2023-12-20T01:44:48;10.27;;;5.50;;
40459;SDS011;26164;51.138;16.952;2023-12-20T01:47:15;15.85;;;10.48;;
40459;SDS011;26164;51.138;16.952;2023-12-20T01:49:43;15.02;;;10.10;;
40459;SDS011;26164;51.138;16.952;2023-12-20T01:52:27;14.35;;;8.93;;
40459;SDS011;26164;51.138;16.952;2023-12-20T01:55:08;17.80;;;10.60;;
40459;SDS011;26164;51.138;16.952;2023-12-20T01:57:53;15.25;;;8.45;;
40459;SDS011;26164;51.138;16.952;2023-12-20T02:00:24;12.88;;;7.53;;
40459;SDS011;26164;51.138;16.952;2023-12-20T02:02:52;11.18;;;5.50;;
40459;SDS011;26164;51.138;16.952;2023-12-20T02:08:21;10.70;;;5.85;;
40459;SDS011;26164;51.138;16.952;2023-12-20T02:11:03;9.32;;;6.47;;
40459;SDS011;26164;51.138;16.952;2023-12-20T02:13:56;8.25;;;4.72;;
40459;SDS011;26164;51.138;16.952;2023-12-20T02:16:46;9.05;;;5.40;;
40459;SDS011;26164;51.138;16.952;2023-12-20T02:19:29;8.73;;;4.40;;
40459;SDS011;26164;51.138;16.952;2023-12-20T02:22:11;8.13;;;4.22;;
40459;SDS011;26164;51.138;16.952;2023-12-20T02:24:39;7.22;;;4.38;;
40459;SDS011;26164;51.138;16.952;2023-12-20T02:30:29;7.07;;;4.03;;
40459;SDS011;26164;51.138;16.952;2023-12-20T02:33:42;7.32;;;4.00;;
40459;SDS011;26164;51.138;16.952;2023-12-20T02:36:10;6.80;;;3.67;;
40459;SDS011;26164;51.138;16.952;2023-12-20T02:38:38;7.65;;;4.35;;
40459;SDS011;26164;51.138;16.952;2023-12-20T02:41:19;6.22;;;3.53;;
40459;SDS011;26164;51.138;16.952;2023-12-20T02:44:10;5.80;;;3.40;;
40459;SDS011;26164;51.138;16.952;2023-12-20T02:46:56;5.13;;;3.10;;
40459;SDS011;26164;51.138;16.952;2023-12-20T02:49:38;5.93;;;3.05;;
40459;SDS011;26164;51.138;16.952;2023-12-20T02:52:25;5.10;;;2.97;;
40459;SDS011;26164;51.138;16.952;2023-12-20T02:55:13;6.05;;;3.13;;
40459;SDS011;26164;51.138;16.952;2023-12-20T02:58:02;4.60;;;2.67;;
40459;SDS011;26164;51.138;16.952;2023-12-20T03:00:47;5.95;;;2.90;;
40459;SDS011;26164;51.138;16.952;2023-12-20T03:03:30;7.72;;;3.38;;
40459;SDS011;26164;51.138;16.952;2023-12-20T03:06:11;7.80;;;3.58;;
40459;SDS011;26164;51.138;16.952;2023-12-20T03:08:57;7.90;;;4.25;;
40459;SDS011;26164;51.138;16.952;2023-12-20T03:11:40;6.25;;;3.78;;
40459;SDS011;26164;51.138;16.952;2023-12-20T03:14:23;6.32;;;3.70;;
40459;SDS011;26164;51.138;16.952;2023-12-20T03:16:57;7.82;;;3.83;;
40459;SDS011;26164;51.138;16.952;2023-12-20T03:19:25;6.35;;;3.47;;
40459;SDS011;26164;51.138;16.952;2023-12-20T03:22:07;7.22;;;3.75;;
40459;SDS011;26164;51.138;16.952;2023-12-20T03:25:02;4.18;;;2.15;;
40459;SDS011;26164;51.138;16.952;2023-12-20T03:27:56;6.90;;;2.30;;
40459;SDS011;26164;51.138;16.952;2023-12-20T03:30:41;3.83;;;1.70;;
40459;SDS011;26164;51.138;16.952;2023-12-20T03:33:25;3.10;;;1.33;;
40459;SDS011;26164;51.138;16.952;2023-12-20T03:36:11;3.00;;;1.02;;
40459;SDS011;26164;51.138;16.952;2023-12-20T03:38:49;3.55;;;1.50;;
40459;SDS011;26164;51.138;16.952;2023-12-20T03:41:16;3.03;;;1.40;;
40459;SDS011;26164;51.138;16.952;2023-12-20T03:43:45;3.58;;;1.50;;
40459;SDS011;26164;51.138;16.952;2023-12-20T03:46:11;2.83;;;1.30;;
40459;SDS011;26164;51.138;16.952;2023-12-20T03:48:39;2.58;;;1.25;;
40459;SDS011;26164;51.138;16.952;2023-12-20T03:51:06;2.65;;;0.82;;
40459;SDS011;26164;51.138;16.952;2023-12-20T03:53:47;3.45;;;1.17;;
40459;SDS011;26164;51.138;16.952;2023-12-20T03:56:15;4.13;;;1.20;;
40459;SDS011;26164;51.138;16.952;2023-12-20T03:58:41;1.83;;;1.00;;
40459;SDS011;26164;51.138;16.952;2023-12-20T04:01:11;2.42;;;1.15;;
40459;SDS011;26164;51.138;16.952;2023-12-20T04:03:39;2.40;;;1.10;;
40459;SDS011;26164;51.138;16.952;2023-12-20T04:06:06;2.85;;;0.95;;
40459;SDS011;26164;51.138;16.952;2023-12-20T04:08:32;5.03;;;1.70;;
40459;SDS011;26164;51.138;16.952;2023-12-20T04:10:59;2.53;;;1.50;;
40459;SDS011;26164;51.138;16.952;2023-12-20T04:13:25;4.10;;;1.48;;
40459;SDS011;26164;51.138;16.952;2023-12-20T04:15:55;4.70;;;2.65;;
40459;SDS011;26164;51.138;16.952;2023-12-20T04:18:21;3.80;;;1.55;;
40459;SDS011;26164;51.138;16.952;2023-12-20T04:20:49;3.83;;;2.10;;
40459;SDS011;26164;51.138;16.952;2023-12-20T04:23:17;6.82;;;3.40;;
40459;SDS011;26164;51.138;16.952;2023-12-20T04:25:58;9.45;;;3.90;;
40459;SDS011;26164;51.138;16.952;2023-12-20T04:28:39;7.07;;;3.70;;
40459;SDS011;26164;51.138;16.952;2023-12-20T04:31:20;8.77;;;3.28;;
40459;SDS011;26164;51.138;16.952;2023-12-20T04:34:01;5.30;;;2.95;;
40459;SDS011;26164;51.138;16.952;2023-12-20T04:36:43;3.83;;;2.35;;
40459;SDS011;26164;51.138;16.952;2023-12-20T04:42:15;6.60;;;4.13;;
40459;SDS011;26164;51.138;16.952;2023-12-20T04:44:57;4.43;;;2.50;;
40459;SDS011;26164;51.138;16.952;2023-12-20T04:47:39;8.18;;;4.75;;
40459;SDS011;26164;51.138;16.952;2023-12-20T04:50:20;6.88;;;2.72;;
40459;SDS011;26164;51.138;16.952;2023-12-20T04:52:48;7.80;;;4.40;;
40459;SDS011;26164;51.138;16.952;2023-12-20T04:55:16;5.43;;;2.92;;
40459;SDS011;26164;51.138;16.952;2023-12-20T04:57:46;6.22;;;2.58;;
40459;SDS011;26164;51.138;16.952;2023-12-20T05:00:20;5.38;;;2.20;;
40459;SDS011;26164;51.138;16.952;2023-12-20T05:03:46;6.53;;;3.05;;
40459;SDS011;26164;51.138;16.952;2023-12-20T05:06:28;4.32;;;2.08;;
40459;SDS011;26164;51.138;16.952;2023-12-20T05:09:15;6.03;;;3.97;;
40459;SDS011;26164;51.138;16.952;2023-12-20T05:11:57;5.85;;;3.00;;
40459;SDS011;26164;51.138;16.952;2023-12-20T05:14:40;7.13;;;4.20;;
40459;SDS011;26164;51.138;16.952;2023-12-20T05:17:23;8.88;;;4.05;;
40459;SDS011;26164;51.138;16.952;2023-12-20T05:19:55;6.82;;;4.43;;
40459;SDS011;26164;51.138;16.952;2023-12-20T05:22:27;6.90;;;3.55;;
40459;SDS011;26164;51.138;16.952;2023-12-20T05:25:09;7.05;;;4.00;;
40459;SDS011;26164;51.138;16.952;2023-12-20T05:27:50;6.97;;;4.82;;
40459;SDS011;26164;51.138;16.952;2023-12-20T05:30:34;8.07;;;4.00;;
40459;SDS011;26164;51.138;16.952;2023-12-20T05:33:14;6.95;;;3.88;;
40459;SDS011;26164;51.138;16.952;2023-12-20T05:35:56;5.43;;;2.65;;
40459;SDS011;26164;51.138;16.952;2023-12-20T05:38:38;3.88;;;1.90;;
40459;SDS011;26164;51.138;16.952;2023-12-20T05:41:19;3.40;;;1.77;;
40459;SDS011;26164;51.138;16.952;2023-12-20T05:44:02;3.67;;;1.55;;
40459;SDS011;26164;51.138;16.952;2023-12-20T05:46:36;2.03;;;1.15;;
40459;SDS011;26164;51.138;16.952;2023-12-20T05:49:04;2.38;;;1.00;;
40459;SDS011;26164;51.138;16.952;2023-12-20T05:51:46;4.35;;;1.15;;
40459;SDS011;26164;51.138;16.952;2023-12-20T05:54:27;3.85;;;1.55;;
40459;SDS011;26164;51.138;16.952;2023-12-20T05:56:56;3.78;;;1.73;;
40459;SDS011;26164;51.138;16.952;2023-12-20T05:59:22;3.45;;;1.88;;
40459;SDS011;26164;51.138;16.952;2023-12-20T06:11:11;3.85;;;2.15;;
40459;SDS011;26164;51.138;16.952;2023-12-20T06:14:08;5.82;;;2.05;;
40459;SDS011;26164;51.138;16.952;2023-12-20T06:16:34;6.97;;;2.35;;
40459;SDS011;26164;51.138;16.952;2023-12-20T06:21:56;3.65;;;1.75;;
40459;SDS011;26164;51.138;16.952;2023-12-20T06:24:39;3.83;;;1.90;;
40459;SDS011;26164;51.138;16.952;2023-12-20T06:27:22;2.30;;;1.52;;
40459;SDS011;26164;51.138;16.952;2023-12-20T06:30:16;6.63;;;2.20;;
40459;SDS011;26164;51.138;16.952;2023-12-20T06:33:06;4.60;;;1.90;;
40459;SDS011;26164;51.138;16.952;2023-12-20T06:35:52;3.25;;;1.52;;
40459;SDS011;26164;51.138;16.952;2023-12-20T06:38:34;5.72;;;1.98;;
40459;SDS011;26164;51.138;16.952;2023-12-20T06:41:05;3.72;;;1.60;;
40459;SDS011;26164;51.138;16.952;2023-12-20T06:43:32;2.80;;;1.55;;
40459;SDS011;26164;51.138;16.952;2023-12-20T06:46:17;4.57;;;1.90;;
40459;SDS011;26164;51.138;16.952;2023-12-20T06:49:05;4.68;;;1.88;;
40459;SDS011;26164;51.138;16.952;2023-12-20T06:51:48;4.07;;;1.98;;
40459;SDS011;26164;51.138;16.952;2023-12-20T06:54:31;3.17;;;1.73;;
40459;SDS011;26164;51.138;16.952;2023-12-20T06:57:15;4.13;;;1.70;;
40459;SDS011;26164;51.138;16.952;2023-12-20T06:59:58;4.00;;;1.92;;
40459;SDS011;26164;51.138;16.952;2023-12-20T07:03:02;4.95;;;2.20;;
40459;SDS011;26164;51.138;16.952;2023-12-20T07:06:28;3.33;;;1.50;;
40459;SDS011;26164;51.138;16.952;2023-12-20T07:09:23;4.25;;;1.90;;
40459;SDS011;26164;51.138;16.952;2023-12-20T07:12:17;4.30;;;1.80;;
40459;SDS011;26164;51.138;16.952;2023-12-20T07:36:42;0.95;;;0.40;;
40459;SDS011;26164;51.138;16.952;2023-12-20T08:15:09;2.03;;;0.63;;
40459;SDS011;26164;51.138;16.952;2023-12-20T08:18:16;2.55;;;0.65;;
40459;SDS011;26164;51.138;16.952;2023-12-20T08:21:17;8.57;;;1.10;;
40459;SDS011;26164;51.138;16.952;2023-12-20T08:24:01;5.47;;;1.25;;
40459;SDS011;26164;51.138;16.952;2023-12-20T08:29:43;3.63;;;1.50;;
40459;SDS011;26164;51.138;16.952;2023-12-20T08:49:19;1.63;;;0.90;;
40459;SDS011;26164;51.138;16.952;2023-12-20T08:52:08;3.38;;;0.93;;
40459;SDS011;26164;51.138;16.952;2023-12-20T08:54:51;2.92;;;1.48;;
40459;SDS011;26164;51.138;16.952;2023-12-20T08:57:36;3.50;;;1.40;;
40459;SDS011;26164;51.138;16.952;2023-12-20T09:00:29;1.00;;;0.70;;
40459;SDS011;26164;51.138;16.952;2023-12-20T09:03:10;2.78;;;1.33;;
40459;SDS011;26164;51.138;16.952;2023-12-20T09:05:56;4.15;;;1.65;;
40459;SDS011;26164;51.138;16.952;2023-12-20T09:08:40;2.85;;;1.58;;
40459;SDS011;26164;51.138;16.952;2023-12-20T09:11:24;5.15;;;1.40;;
40459;SDS011;26164;51.138;16.952;2023-12-20T09:14:05;3.30;;;1.75;;
40459;SDS011;26164;51.138;16.952;2023-12-20T09:16:47;4.50;;;2.90;;
40459;SDS011;26164;51.138;16.952;2023-12-20T09:19:32;4.22;;;3.00;;
40459;SDS011;26164;51.138;16.952;2023-12-20T09:22:15;5.95;;;3.95;;
40459;SDS011;26164;51.138;16.952;2023-12-20T09:25:04;6.32;;;4.25;;
40459;SDS011;26164;51.138;16.952;2023-12-20T09:27:51;5.85;;;3.95;;
40459;SDS011;26164;51.138;16.952;2023-12-20T09:30:37;4.57;;;3.28;;
40459;SDS011;26164;51.138;16.952;2023-12-20T09:37:07;3.70;;;1.35;;
40459;SDS011;26164;51.138;16.952;2023-12-20T11:26:23;2.97;;;1.13;;
40459;SDS011;26164;51.138;16.952;2023-12-20T11:32:52;8.30;;;1.40;;
40459;SDS011;26164;51.138;16.952;2023-12-20T11:37:38;5.15;;;1.17;;
40459;SDS011;26164;51.138;16.952;2023-12-20T11:42:03;3.47;;;0.90;;
40459;SDS011;26164;51.138;16.952;2023-12-20T11:44:50;4.55;;;0.90;;
40459;SDS011;26164;51.138;16.952;2023-12-20T11:51:10;5.45;;;1.13;;
40459;SDS011;26164;51.138;16.952;2023-12-20T12:07:07;6.22;;;1.55;;
40459;SDS011;26164;51.138;16.952;2023-12-20T12:42:36;4.13;;;0.90;;
40459;SDS011;26164;51.138;16.952;2023-12-20T13:25:08;4.43;;;1.20;;
40459;SDS011;26164;51.138;16.952;2023-12-20T13:30:58;2.28;;;0.85;;
40459;SDS011;26164;51.138;16.952;2023-12-20T13:33:45;4.28;;;0.57;;
40459;SDS011;26164;51.138;16.952;2023-12-20T13:46:10;3.78;;;1.10;;
40459;SDS011;26164;51.138;16.952;2023-12-20T20:38:55;4.40;;;1.23;;
40459;SDS011;26164;51.138;16.952;2023-12-20T22:53:13;1.15;;;0.40;;
